Tropical Cyclones
[Index]
Main Index Home Page Stock Weather Photos Extreme Storms Discussion Storm News and Storm Chasing Reports Tropical Cyclones / Hurricanes / Typhoons Weather Data and Links Wild Fires / Bushfires Weather Observation Techniques Weather Picture Catalogue Tornado Pictures and Reports Stock Video Footage and DVDs for sale
Season 1985-1986 Tropical Cyclone GISTA Track Map
Season 1985-1986 Summaries: [BoM-AU] [JTWC-AU] [JTWC-SIO] [JTWC-SPAC] [JTWC-SH]
<<- Previous TC | JTWC 1985-1986 Season | Next TC ->>

click for intensity scale information  Lat/long Grid: Show Hide

 Date Labels: Show Hide

Joint Typhoon Warning Centre Cyclone Data

Name: GISTA

18 Feb 1986 12:00 UTC to 25 Feb 1986 00:00 UTC

    date/time    lat    long     hPa   cat  kts
1986-02-18 12   17.8    42.2                  25          
1986-02-18 18   18.0    42.2                  25          
1986-02-19 00   18.3    42.3                  30          
1986-02-19 06   18.6    42.4                  30          
1986-02-19 12   18.9    42.4                  35          
1986-02-19 18   19.2    42.4                  35          
1986-02-20 00   19.5    42.4            1     40          
1986-02-20 06   19.9    42.4            1     45          
1986-02-20 12   20.4    42.4            1     45          
1986-02-20 18   21.1    42.3            1     45          
1986-02-21 00   21.8    42.1            1     45          
1986-02-21 06   22.4    41.8            1     45          
1986-02-21 12   23.0    41.4            1     45          
1986-02-21 18   23.7    41.3            1     45          
1986-02-22 00   24.6    41.1            1     50          
1986-02-22 06   25.5    40.8            2     55          
1986-02-22 12   26.5    40.5            2     60          
1986-02-22 18   27.3    40.3            2     65          
1986-02-23 00   28.1    40.1            2     70          
1986-02-23 06   29.2    40.0            3     75          
1986-02-23 12   30.6    40.4            3     85          
1986-02-23 18   32.1    41.3            3     85          
1986-02-24 00   33.9    42.2            3     80          
1986-02-24 06   36.0    43.0            2     70          
1986-02-24 12   38.1    43.9            2     55          
1986-02-24 18   39.9    45.5            1     45          
1986-02-25 00   41.6    48.1                  35          
Winds are 1-min average.

Tropical cyclone tracks developed by Michael Bath using data from the Joint Typhoon Warning Centre Best Tracks and Google Maps.


[Australian Severe Weather index] [Copyright Notice] [Email Contacts] [Search This Site] [Privacy Policy]
Document: tropical_cyclone_gista.htm Updated: 18 September 2016